Newquay, United Kingdom

7:16 AM GMT on January 26, 2015 (GMT +0000)
Newquay | Change Station
CLOSE
Current Station
Personal Weather Station
Location: Newquay, CORNWALL
Elevation: 119 ft
Nearby Weather Stations

Elev 119 ft 50.42 °N, 5.05 °W | Updated 1 minute ago

Light Drizzle
Light Drizzle
48.9 °F
Feels Like 44 °F
N
12.0
Wind Variable Wind from NNW
Gusts 18.0 mph

Today
High -- | Low -- °F
--% Chance of Precip.
Yesterday
High -- | Low -- °F
Precip. -- in
8:03 AM 5:02 PM
Waxing Crescent, 40% visible
Pressure 30.27 in
Visibility 1.6 miles
Clouds Mostly Cloudy 200 ft
Mostly Cloudy 500 ft
Overcast 800 ft
Windchill 44 °F
Dew Point 48 °F
Humidity 95%
Rainfall 0.12 in
Snow Depth Not available.
UV 0 out of 12
Pollen Not available.
Air Quality Not available.
Flu Activity Not available.
METAR EGDR 260650Z 27011G21KT 2500 -DZ BKN002 BKN005 OVC008 10/10 Q1025 AMB TEMPO 1000 DZ SCT001 RED

More Conditions Fewer Conditions

Pressure 30.27 in
Visibility 1.6 miles
Clouds Mostly Cloudy 200 ft
Mostly Cloudy 500 ft
Overcast 800 ft
Windchill 44 °F
Dew Point 48 °F
Humidity 95%
Rainfall 0.12 in
Snow Depth Not available.
UV 0 out of 12
Pollen Not available.
Air Quality Not available.
Flu Activity Not available.
METAR EGDR 260650Z 27011G21KT 2500 -DZ BKN002 BKN005 OVC008 10/10 Q1025 AMB TEMPO 1000 DZ SCT001 RED

More Conditions Fewer Conditions

10-Day Weather Forecast

Almanac

Astronomy

Jan. 26, 2015 Rise Set
Actual Time
Civil Twilight
Nautical Twilight
Astronomical Twilight
Moon
Length of Visible Light
Length of Day
Tomorrow will be .
, % of the Moon is Illuminated

Today's Extremes

Country Highs Country Lows

Community

WunderPhotos

Upload Photos

1,790,155 photos uploaded!

WunderBlogs® & News

Nearby

Air Quality

  Air Quality AQ Index Pollutant
Not available.

Snow Depth

Station Depth Elevation

Earthquake Activity

City Distance Mag. Time & Date
Minimum magnitude displayed is 2.5.

Coastal Water Temperatures

Place Temperature

Nearby Weather Stations